sensor_id;sensor_type;location;lat;lon;timestamp;pressure;altitude;pressure_sealevel;temperature;humidity
67434;BME280;54305;47.950;6.572;2022-12-07T00:00:49;94406.69;;;1.58;100.00
67434;BME280;54305;47.950;6.572;2022-12-07T00:03:14;94417.34;;;1.52;100.00
67434;BME280;54305;47.950;6.572;2022-12-07T00:05:39;94403.38;;;1.56;100.00
67434;BME280;54305;47.950;6.572;2022-12-07T00:08:05;94403.63;;;1.53;100.00
67434;BME280;54305;47.950;6.572;2022-12-07T00:10:30;94397.25;;;1.46;100.00
67434;BME280;54305;47.950;6.572;2022-12-07T00:12:57;94402.19;;;1.49;100.00
67434;BME280;54305;47.950;6.572;2022-12-07T00:15:23;94395.19;;;1.51;100.00
67434;BME280;54305;47.950;6.572;2022-12-07T00:17:48;94398.50;;;1.53;100.00
67434;BME280;54305;47.950;6.572;2022-12-07T00:20:13;94397.66;;;1.52;100.00
67434;BME280;54305;47.950;6.572;2022-12-07T00:22:39;94405.88;;;1.45;100.00
67434;BME280;54305;47.950;6.572;2022-12-07T00:25:04;94406.88;;;1.55;100.00
67434;BME280;54305;47.950;6.572;2022-12-07T00:27:29;94400.75;;;1.45;100.00
67434;BME280;54305;47.950;6.572;2022-12-07T00:29:54;94402.38;;;1.46;100.00
67434;BME280;54305;47.950;6.572;2022-12-07T00:32:20;94400.56;;;1.48;100.00
67434;BME280;54305;47.950;6.572;2022-12-07T00:34:45;94385.34;;;1.45;100.00
67434;BME280;54305;47.950;6.572;2022-12-07T00:37:10;94387.53;;;1.26;100.00
67434;BME280;54305;47.950;6.572;2022-12-07T00:39:37;94379.66;;;1.29;100.00
67434;BME280;54305;47.950;6.572;2022-12-07T00:42:02;94379.41;;;1.32;100.00
67434;BME280;54305;47.950;6.572;2022-12-07T00:44:28;94379.41;;;1.32;100.00
67434;BME280;54305;47.950;6.572;2022-12-07T00:46:53;94381.28;;;1.30;100.00
67434;BME280;54305;47.950;6.572;2022-12-07T00:49:19;94381.38;;;1.28;100.00
67434;BME280;54305;47.950;6.572;2022-12-07T00:51:44;94371.63;;;1.33;100.00
67434;BME280;54305;47.950;6.572;2022-12-07T00:54:09;94380.06;;;1.23;100.00
67434;BME280;54305;47.950;6.572;2022-12-07T00:56:35;94376.34;;;1.27;100.00
67434;BME280;54305;47.950;6.572;2022-12-07T00:59:01;94372.47;;;1.34;100.00
67434;BME280;54305;47.950;6.572;2022-12-07T01:01:28;94369.41;;;1.29;100.00
67434;BME280;54305;47.950;6.572;2022-12-07T01:03:53;94378.81;;;1.28;100.00
67434;BME280;54305;47.950;6.572;2022-12-07T01:06:19;94381.28;;;1.30;100.00
67434;BME280;54305;47.950;6.572;2022-12-07T01:08:45;94384.78;;;1.29;100.00
67434;BME280;54305;47.950;6.572;2022-12-07T01:11:12;94388.06;;;1.31;100.00
67434;BME280;54305;47.950;6.572;2022-12-07T01:13:37;94386.59;;;1.39;100.00
67434;BME280;54305;47.950;6.572;2022-12-07T01:16:03;94389.25;;;1.38;100.00
67434;BME280;54305;47.950;6.572;2022-12-07T01:18:30;94382.28;;;1.40;100.00
67434;BME280;54305;47.950;6.572;2022-12-07T01:23:24;94384.97;;;1.38;100.00
67434;BME280;54305;47.950;6.572;2022-12-07T01:25:59;94389.91;;;1.29;100.00
67434;BME280;54305;47.950;6.572;2022-12-07T01:28:25;94395.94;;;1.27;100.00
67434;BME280;54305;47.950;6.572;2022-12-07T01:31:07;94397.81;;;1.26;100.00
67434;BME280;54305;47.950;6.572;2022-12-07T01:33:34;94390.09;;;1.26;100.00
67434;BME280;54305;47.950;6.572;2022-12-07T01:36:03;94394.72;;;1.21;100.00
67434;BME280;54305;47.950;6.572;2022-12-07T01:38:29;94392.88;;;1.23;100.00
67434;BME280;54305;47.950;6.572;2022-12-07T01:40:55;94392.16;;;1.21;100.00
67434;BME280;54305;47.950;6.572;2022-12-07T01:43:21;94386.13;;;1.22;100.00
67434;BME280;54305;47.950;6.572;2022-12-07T01:45:48;94389.50;;;1.22;100.00
67434;BME280;54305;47.950;6.572;2022-12-07T01:48:14;94396.44;;;1.33;100.00
67434;BME280;54305;47.950;6.572;2022-12-07T01:50:42;94404.28;;;1.31;100.00
67434;BME280;54305;47.950;6.572;2022-12-07T01:53:09;94410.44;;;1.29;100.00
67434;BME280;54305;47.950;6.572;2022-12-07T01:55:35;94405.50;;;1.26;100.00
67434;BME280;54305;47.950;6.572;2022-12-07T01:58:02;94403.44;;;1.31;100.00
67434;BME280;54305;47.950;6.572;2022-12-07T02:00:27;94403.97;;;1.23;100.00
67434;BME280;54305;47.950;6.572;2022-12-07T02:03:13;94400.16;;;1.29;100.00
67434;BME280;54305;47.950;6.572;2022-12-07T02:05:41;94400.53;;;1.35;100.00
67434;BME280;54305;47.950;6.572;2022-12-07T02:08:08;94402.44;;;1.21;100.00
67434;BME280;54305;47.950;6.572;2022-12-07T02:10:33;94414.31;;;1.22;100.00
67434;BME280;54305;47.950;6.572;2022-12-07T02:13:03;94412.50;;;1.24;100.00
67434;BME280;54305;47.950;6.572;2022-12-07T02:15:35;94411.63;;;1.36;100.00
67434;BME280;54305;47.950;6.572;2022-12-07T02:31:22;94411.56;;;1.25;100.00
67434;BME280;54305;47.950;6.572;2022-12-07T02:33:54;94415.56;;;1.29;100.00
67434;BME280;54305;47.950;6.572;2022-12-07T02:36:25;94411.66;;;1.23;100.00
67434;BME280;54305;47.950;6.572;2022-12-07T02:38:55;94409.63;;;1.16;100.00
67434;BME280;54305;47.950;6.572;2022-12-07T02:41:24;94408.59;;;1.18;100.00
67434;BME280;54305;47.950;6.572;2022-12-07T02:43:52;94418.41;;;1.24;100.00
67434;BME280;54305;47.950;6.572;2022-12-07T02:46:21;94412.50;;;1.24;100.00
67434;BME280;54305;47.950;6.572;2022-12-07T02:48:47;94417.63;;;1.24;100.00
67434;BME280;54305;47.950;6.572;2022-12-07T02:51:14;94415.97;;;1.23;100.00
67434;BME280;54305;47.950;6.572;2022-12-07T02:53:42;94417.19;;;1.30;100.00
67434;BME280;54305;47.950;6.572;2022-12-07T03:01:11;94421.91;;;1.36;100.00
67434;BME280;54305;47.950;6.572;2022-12-07T03:03:40;94414.09;;;1.37;100.00
67434;BME280;54305;47.950;6.572;2022-12-07T03:06:16;94417.28;;;1.41;100.00
67434;BME280;54305;47.950;6.572;2022-12-07T03:11:12;94412.88;;;1.30;100.00
67434;BME280;54305;47.950;6.572;2022-12-07T03:13:49;94403.44;;;1.31;100.00
67434;BME280;54305;47.950;6.572;2022-12-07T03:19:22;94393.38;;;1.27;100.00
67434;BME280;54305;47.950;6.572;2022-12-07T03:21:33;94399.94;;;1.32;100.00
67434;BME280;54305;47.950;6.572;2022-12-07T03:24:03;94396.28;;;1.23;100.00
67434;BME280;54305;47.950;6.572;2022-12-07T03:26:32;94394.22;;;1.16;100.00
67434;BME280;54305;47.950;6.572;2022-12-07T03:29:01;94391.56;;;1.17;100.00
67434;BME280;54305;47.950;6.572;2022-12-07T03:31:31;94393.72;;;1.11;100.00
67434;BME280;54305;47.950;6.572;2022-12-07T03:36:29;94398.97;;;0.97;100.00
67434;BME280;54305;47.950;6.572;2022-12-07T03:39:02;94393.00;;;0.83;100.00
67434;BME280;54305;47.950;6.572;2022-12-07T03:41:31;94390.34;;;0.73;100.00
67434;BME280;54305;47.950;6.572;2022-12-07T03:43:58;94379.47;;;0.82;100.00
67434;BME280;54305;47.950;6.572;2022-12-07T03:46:34;94376.41;;;0.77;100.00
67434;BME280;54305;47.950;6.572;2022-12-07T03:49:06;94382.25;;;0.78;100.00
67434;BME280;54305;47.950;6.572;2022-12-07T03:54:27;94378.84;;;0.53;100.00
67434;BME280;54305;47.950;6.572;2022-12-07T03:56:54;94378.44;;;0.47;100.00
67434;BME280;54305;47.950;6.572;2022-12-07T03:59:20;94367.16;;;0.37;100.00
67434;BME280;54305;47.950;6.572;2022-12-07T04:01:51;94368.97;;;0.34;100.00
67434;BME280;54305;47.950;6.572;2022-12-07T04:04:17;94367.53;;;0.30;100.00
67434;BME280;54305;47.950;6.572;2022-12-07T04:06:42;94359.34;;;0.25;100.00
67434;BME280;54305;47.950;6.572;2022-12-07T04:09:07;94359.56;;;0.22;100.00
67434;BME280;54305;47.950;6.572;2022-12-07T04:11:33;94358.09;;;0.18;100.00
67434;BME280;54305;47.950;6.572;2022-12-07T04:13:58;94356.25;;;0.20;100.00
67434;BME280;54305;47.950;6.572;2022-12-07T04:16:42;94341.91;;;0.18;100.00
67434;BME280;54305;47.950;6.572;2022-12-07T04:19:07;94351.53;;;0.14;100.00
67434;BME280;54305;47.950;6.572;2022-12-07T04:21:32;94362.13;;;0.22;100.00
67434;BME280;54305;47.950;6.572;2022-12-07T04:23:58;94362.41;;;0.18;100.00
67434;BME280;54305;47.950;6.572;2022-12-07T04:26:23;94359.94;;;0.16;100.00
67434;BME280;54305;47.950;6.572;2022-12-07T04:28:48;94358.28;;;0.15;100.00
67434;BME280;54305;47.950;6.572;2022-12-07T04:31:13;94358.19;;;0.04;100.00
67434;BME280;54305;47.950;6.572;2022-12-07T04:33:39;94356.13;;;0.09;100.00
67434;BME280;54305;47.950;6.572;2022-12-07T04:36:04;94365.84;;;0.04;100.00
67434;BME280;54305;47.950;6.572;2022-12-07T04:38:30;94361.75;;;0.02;100.00
67434;BME280;54305;47.950;6.572;2022-12-07T04:40:55;94357.66;;;-0.01;100.00
67434;BME280;54305;47.950;6.572;2022-12-07T04:43:20;94351.50;;;0.02;100.00
67434;BME280;54305;47.950;6.572;2022-12-07T04:45:46;94350.91;;;-0.02;100.00
67434;BME280;54305;47.950;6.572;2022-12-07T04:48:12;94357.03;;;-0.04;100.00
67434;BME280;54305;47.950;6.572;2022-12-07T04:50:37;94354.56;;;-0.06;100.00
67434;BME280;54305;47.950;6.572;2022-12-07T04:53:03;94358.63;;;-0.16;100.00
67434;BME280;54305;47.950;6.572;2022-12-07T04:55:28;94353.91;;;-0.22;100.00
67434;BME280;54305;47.950;6.572;2022-12-07T04:57:53;94353.69;;;-0.19;100.00
67434;BME280;54305;47.950;6.572;2022-12-07T05:00:19;94360.84;;;-0.24;100.00
67434;BME280;54305;47.950;6.572;2022-12-07T05:02:44;94352.81;;;-0.32;100.00
67434;BME280;54305;47.950;6.572;2022-12-07T05:05:09;94354.84;;;-0.37;100.00
67434;BME280;54305;47.950;6.572;2022-12-07T05:07:35;94363.44;;;-0.38;100.00
67434;BME280;54305;47.950;6.572;2022-12-07T05:10:00;94366.00;;;-0.38;100.00
67434;BME280;54305;47.950;6.572;2022-12-07T05:12:25;94360.19;;;-0.40;100.00
67434;BME280;54305;47.950;6.572;2022-12-07T05:14:50;94360.34;;;-0.43;100.00
67434;BME280;54305;47.950;6.572;2022-12-07T05:17:15;94363.84;;;-0.44;100.00
67434;BME280;54305;47.950;6.572;2022-12-07T05:19:41;94363.84;;;-0.44;100.00
67434;BME280;54305;47.950;6.572;2022-12-07T05:22:06;94362.19;;;-0.45;100.00
67434;BME280;54305;47.950;6.572;2022-12-07T05:24:32;94365.88;;;-0.49;100.00
67434;BME280;54305;47.950;6.572;2022-12-07T05:26:57;94354.91;;;-0.51;100.00
67434;BME280;54305;47.950;6.572;2022-12-07T05:29:23;94366.56;;;-0.47;100.00
67434;BME280;54305;47.950;6.572;2022-12-07T05:31:48;94370.41;;;-0.40;100.00
67434;BME280;54305;47.950;6.572;2022-12-07T05:34:13;94359.97;;;-0.37;100.00
67434;BME280;54305;47.950;6.572;2022-12-07T05:36:38;94370.59;;;-0.43;100.00
67434;BME280;54305;47.950;6.572;2022-12-07T05:39:04;94366.25;;;-0.55;100.00
67434;BME280;54305;47.950;6.572;2022-12-07T05:41:29;94365.59;;;-0.58;100.00
67434;BME280;54305;47.950;6.572;2022-12-07T05:44:13;94371.03;;;-0.77;100.00
67434;BME280;54305;47.950;6.572;2022-12-07T05:46:39;94371.59;;;-0.86;100.00
67434;BME280;54305;47.950;6.572;2022-12-07T05:49:04;94370.50;;;-0.96;100.00
67434;BME280;54305;47.950;6.572;2022-12-07T05:51:29;94374.34;;;-1.03;100.00
67434;BME280;54305;47.950;6.572;2022-12-07T05:53:55;94380.19;;;-1.15;100.00
67434;BME280;54305;47.950;6.572;2022-12-07T05:56:20;94392.78;;;-1.26;100.00
67434;BME280;54305;47.950;6.572;2022-12-07T05:58:45;94391.31;;;-1.16;100.00
67434;BME280;54305;47.950;6.572;2022-12-07T06:01:29;94379.47;;;-1.17;100.00
67434;BME280;54305;47.950;6.572;2022-12-07T06:03:55;94385.13;;;-1.12;100.00
67434;BME280;54305;47.950;6.572;2022-12-07T06:06:20;94386.59;;;-1.08;100.00
67434;BME280;54305;47.950;6.572;2022-12-07T06:08:45;94383.38;;;-0.97;100.00
67434;BME280;54305;47.950;6.572;2022-12-07T06:11:10;94390.56;;;-0.90;100.00
67434;BME280;54305;47.950;6.572;2022-12-07T06:13:54;94387.47;;;-0.81;100.00
67434;BME280;54305;47.950;6.572;2022-12-07T06:16:20;94388.28;;;-0.66;100.00
67434;BME280;54305;47.950;6.572;2022-12-07T06:18:45;94382.97;;;-0.63;100.00
67434;BME280;54305;47.950;6.572;2022-12-07T06:21:10;94380.94;;;-0.58;100.00
67434;BME280;54305;47.950;6.572;2022-12-07T06:23:35;94380.19;;;-0.46;100.00
67434;BME280;54305;47.950;6.572;2022-12-07T06:26:01;94381.75;;;-0.44;100.00
67434;BME280;54305;47.950;6.572;2022-12-07T06:28:26;94390.88;;;-0.40;100.00
67434;BME280;54305;47.950;6.572;2022-12-07T06:30:57;94391.50;;;-0.36;100.00
67434;BME280;54305;47.950;6.572;2022-12-07T06:33:24;94385.53;;;-0.37;100.00
67434;BME280;54305;47.950;6.572;2022-12-07T06:35:49;94388.63;;;-0.32;100.00
67434;BME280;54305;47.950;6.572;2022-12-07T06:38:14;94393.47;;;-0.27;100.00
67434;BME280;54305;47.950;6.572;2022-12-07T06:40:39;94394.72;;;-0.20;100.00
67434;BME280;54305;47.950;6.572;2022-12-07T06:43:04;94398.31;;;-0.23;100.00
67434;BME280;54305;47.950;6.572;2022-12-07T06:45:30;94399.75;;;-0.19;100.00
67434;BME280;54305;47.950;6.572;2022-12-07T06:47:55;94398.13;;;-0.20;100.00
67434;BME280;54305;47.950;6.572;2022-12-07T06:50:20;94401.59;;;-0.21;100.00
67434;BME280;54305;47.950;6.572;2022-12-07T06:52:45;94403.31;;;-0.21;100.00
67434;BME280;54305;47.950;6.572;2022-12-07T06:55:11;94399.63;;;-0.30;100.00
67434;BME280;54305;47.950;6.572;2022-12-07T06:57:36;94392.38;;;-0.23;100.00
67434;BME280;54305;47.950;6.572;2022-12-07T07:00:02;94395.38;;;-0.17;100.00
67434;BME280;54305;47.950;6.572;2022-12-07T07:02:28;94392.00;;;-0.17;100.00
67434;BME280;54305;47.950;6.572;2022-12-07T07:04:53;94399.03;;;-0.21;100.00
67434;BME280;54305;47.950;6.572;2022-12-07T07:07:18;94400.69;;;-0.20;100.00
67434;BME280;54305;47.950;6.572;2022-12-07T07:09:43;94403.25;;;-0.20;100.00
67434;BME280;54305;47.950;6.572;2022-12-07T07:12:09;94407.03;;;-0.13;100.00
67434;BME280;54305;47.950;6.572;2022-12-07T07:14:34;94405.94;;;-0.09;100.00
67434;BME280;54305;47.950;6.572;2022-12-07T07:16:59;94406.75;;;-0.08;100.00
67434;BME280;54305;47.950;6.572;2022-12-07T07:19:25;94416.00;;;-0.06;100.00
67434;BME280;54305;47.950;6.572;2022-12-07T07:21:50;94412.31;;;-0.02;100.00
67434;BME280;54305;47.950;6.572;2022-12-07T07:24:15;94424.59;;;-0.07;100.00
67434;BME280;54305;47.950;6.572;2022-12-07T07:26:40;94408.59;;;-0.10;100.00
67434;BME280;54305;47.950;6.572;2022-12-07T07:29:06;94414.53;;;-0.10;100.00
67434;BME280;54305;47.950;6.572;2022-12-07T07:31:31;94414.72;;;-0.13;100.00
67434;BME280;54305;47.950;6.572;2022-12-07T07:33:56;94410.63;;;-0.15;100.00
67434;BME280;54305;47.950;6.572;2022-12-07T07:36:22;94415.09;;;-0.19;100.00
67434;BME280;54305;47.950;6.572;2022-12-07T07:38:47;94409.19;;;-0.19;100.00
67434;BME280;54305;47.950;6.572;2022-12-07T07:41:13;94410.00;;;-0.19;100.00
67434;BME280;54305;47.950;6.572;2022-12-07T07:43:38;94418.59;;;-0.20;100.00
67434;BME280;54305;47.950;6.572;2022-12-07T07:46:03;94416.41;;;-0.26;100.00
67434;BME280;54305;47.950;6.572;2022-12-07T07:48:29;94414.44;;;-0.35;100.00
67434;BME280;54305;47.950;6.572;2022-12-07T07:50:54;94424.09;;;-0.26;100.00
67434;BME280;54305;47.950;6.572;2022-12-07T07:53:19;94422.06;;;-0.21;100.00
67434;BME280;54305;47.950;6.572;2022-12-07T07:55:51;94420.63;;;-0.25;100.00
67434;BME280;54305;47.950;6.572;2022-12-07T07:58:17;94418.16;;;-0.26;100.00
67434;BME280;54305;47.950;6.572;2022-12-07T08:00:43;94417.13;;;-0.24;100.00
67434;BME280;54305;47.950;6.572;2022-12-07T08:03:08;94420.22;;;-0.19;100.00
67434;BME280;54305;47.950;6.572;2022-12-07T08:05:33;94417.41;;;-0.14;100.00
67434;BME280;54305;47.950;6.572;2022-12-07T08:07:59;94413.06;;;-0.14;100.00
67434;BME280;54305;47.950;6.572;2022-12-07T08:10:24;94421.84;;;-0.18;100.00
67434;BME280;54305;47.950;6.572;2022-12-07T08:12:49;94418.78;;;-0.23;100.00
67434;BME280;54305;47.950;6.572;2022-12-07T08:15:33;94421.25;;;-0.21;100.00
67434;BME280;54305;47.950;6.572;2022-12-07T08:18:01;94424.09;;;-0.26;100.00
67434;BME280;54305;47.950;6.572;2022-12-07T08:20:26;94415.50;;;-0.25;100.00
67434;BME280;54305;47.950;6.572;2022-12-07T08:22:51;94422.47;;;-0.27;100.00
67434;BME280;54305;47.950;6.572;2022-12-07T08:25:17;94420.69;;;-0.26;100.00
67434;BME280;54305;47.950;6.572;2022-12-07T08:27:42;94421.16;;;-0.20;100.00
67434;BME280;54305;47.950;6.572;2022-12-07T08:30:08;94419.84;;;-0.13;100.00
67434;BME280;54305;47.950;6.572;2022-12-07T08:32:33;94428.75;;;0.08;100.00
67434;BME280;54305;47.950;6.572;2022-12-07T08:34:58;94414.56;;;0.29;100.00
67434;BME280;54305;47.950;6.572;2022-12-07T08:37:24;94424.13;;;0.52;100.00
67434;BME280;54305;47.950;6.572;2022-12-07T08:39:49;94421.94;;;0.73;100.00
67434;BME280;54305;47.950;6.572;2022-12-07T08:42:14;94420.06;;;0.88;100.00
67434;BME280;54305;47.950;6.572;2022-12-07T08:44:39;94421.09;;;0.98;100.00
67434;BME280;54305;47.950;6.572;2022-12-07T08:47:05;94425.19;;;1.13;100.00
67434;BME280;54305;47.950;6.572;2022-12-07T08:49:33;94426.44;;;1.20;100.00
67434;BME280;54305;47.950;6.572;2022-12-07T08:52:00;94418.31;;;1.26;100.00
67434;BME280;54305;47.950;6.572;2022-12-07T08:54:26;94420.47;;;1.32;100.00
67434;BME280;54305;47.950;6.572;2022-12-07T08:56:53;94428.03;;;1.46;100.00
67434;BME280;54305;47.950;6.572;2022-12-07T08:59:19;94431.34;;;1.48;100.00
67434;BME280;54305;47.950;6.572;2022-12-07T09:01:45;94431.53;;;1.45;100.00
67434;BME280;54305;47.950;6.572;2022-12-07T09:04:11;94418.59;;;1.46;100.00
67434;BME280;54305;47.950;6.572;2022-12-07T09:06:39;94426.28;;;1.59;100.00
67434;BME280;54305;47.950;6.572;2022-12-07T09:09:04;94428.63;;;1.74;100.00
67434;BME280;54305;47.950;6.572;2022-12-07T09:11:31;94426.66;;;2.01;100.00
67434;BME280;54305;47.950;6.572;2022-12-07T09:13:56;94420.16;;;2.32;100.00
67434;BME280;54305;47.950;6.572;2022-12-07T09:16:22;94422.88;;;2.65;99.09
67434;BME280;54305;47.950;6.572;2022-12-07T09:18:47;94424.31;;;2.91;95.18
67434;BME280;54305;47.950;6.572;2022-12-07T09:21:12;94431.41;;;3.33;92.21
67434;BME280;54305;47.950;6.572;2022-12-07T09:23:38;94432.34;;;3.43;90.30
67434;BME280;54305;47.950;6.572;2022-12-07T09:26:03;94433.75;;;3.69;91.36
67434;BME280;54305;47.950;6.572;2022-12-07T09:28:32;94429.50;;;4.01;91.19
67434;BME280;54305;47.950;6.572;2022-12-07T09:30:57;94425.84;;;4.14;89.33
67434;BME280;54305;47.950;6.572;2022-12-07T09:33:22;94426.88;;;4.23;89.14
67434;BME280;54305;47.950;6.572;2022-12-07T09:35:48;94420.69;;;4.46;89.10
67434;BME280;54305;47.950;6.572;2022-12-07T09:38:14;94421.88;;;4.53;87.00
67434;BME280;54305;47.950;6.572;2022-12-07T09:40:39;94415.53;;;4.46;85.71
67434;BME280;54305;47.950;6.572;2022-12-07T09:43:11;94420.69;;;4.46;87.15
67434;BME280;54305;47.950;6.572;2022-12-07T09:45:37;94427.81;;;4.22;87.18
67434;BME280;54305;47.950;6.572;2022-12-07T09:48:03;94423.63;;;4.10;87.93
67434;BME280;54305;47.950;6.572;2022-12-07T09:50:29;94419.69;;;3.73;87.15
67434;BME280;54305;47.950;6.572;2022-12-07T09:52:56;94419.13;;;3.69;88.25
67434;BME280;54305;47.950;6.572;2022-12-07T09:55:29;94410.81;;;3.77;88.47
67434;BME280;54305;47.950;6.572;2022-12-07T09:57:55;94421.34;;;3.74;88.84
67434;BME280;54305;47.950;6.572;2022-12-07T10:00:22;94417.59;;;3.78;89.49
67434;BME280;54305;47.950;6.572;2022-12-07T10:02:57;94414.88;;;4.01;88.95
67434;BME280;54305;47.950;6.572;2022-12-07T10:05:24;94425.06;;;3.92;87.64
67434;BME280;54305;47.950;6.572;2022-12-07T10:07:50;94415.94;;;3.99;88.99
67434;BME280;54305;47.950;6.572;2022-12-07T10:10:22;94419.94;;;3.70;90.37
67434;BME280;54305;47.950;6.572;2022-12-07T10:12:55;94416.19;;;3.74;89.31
67434;BME280;54305;47.950;6.572;2022-12-07T10:15:20;94420.53;;;3.62;90.74
67434;BME280;54305;47.950;6.572;2022-12-07T10:17:49;94411.75;;;3.65;90.05
67434;BME280;54305;47.950;6.572;2022-12-07T10:22:57;94409.63;;;3.70;89.05
67434;BME280;54305;47.950;6.572;2022-12-07T10:25:25;94400.72;;;3.74;90.75
67434;BME280;54305;47.950;6.572;2022-12-07T10:27:57;94400.38;;;3.67;88.37
67434;BME280;54305;47.950;6.572;2022-12-07T10:30:23;94397.81;;;3.78;88.57
67434;BME280;54305;47.950;6.572;2022-12-07T10:32:48;94379.91;;;3.77;88.71
67434;BME280;54305;47.950;6.572;2022-12-07T10:35:21;94379.78;;;3.78;84.31
67434;BME280;54305;47.950;6.572;2022-12-07T10:37:47;94384.22;;;3.87;84.16
67434;BME280;54305;47.950;6.572;2022-12-07T10:40:23;94378.44;;;4.06;86.75
67434;BME280;54305;47.950;6.572;2022-12-07T10:43:00;94375.63;;;4.40;86.96
67434;BME280;54305;47.950;6.572;2022-12-07T10:45:35;94368.91;;;4.90;84.49
67434;BME280;54305;47.950;6.572;2022-12-07T10:50:44;94366.00;;;5.04;82.54
67434;BME280;54305;47.950;6.572;2022-12-07T10:54:13;94362.31;;;4.76;80.18
67434;BME280;54305;47.950;6.572;2022-12-07T11:01:23;94355.88;;;5.42;82.90
67434;BME280;54305;47.950;6.572;2022-12-07T11:06:39;94347.91;;;5.94;80.89
67434;BME280;54305;47.950;6.572;2022-12-07T11:12:04;94348.03;;;5.92;77.64
67434;BME280;54305;47.950;6.572;2022-12-07T11:14:40;94337.44;;;5.56;78.72
67434;BME280;54305;47.950;6.572;2022-12-07T11:30:34;94321.44;;;5.32;79.04
67434;BME280;54305;47.950;6.572;2022-12-07T11:38:55;94315.56;;;4.70;82.72
67434;BME280;54305;47.950;6.572;2022-12-07T11:41:02;94327.25;;;4.74;85.36
67434;BME280;54305;47.950;6.572;2022-12-07T11:43:45;94315.25;;;4.63;86.01
67434;BME280;54305;47.950;6.572;2022-12-07T11:46:15;94306.00;;;6.00;76.53
67434;BME280;54305;47.950;6.572;2022-12-07T11:51:11;94298.00;;;6.41;71.96
67434;BME280;54305;47.950;6.572;2022-12-07T11:53:53;94291.16;;;7.14;72.42
67434;BME280;54305;47.950;6.572;2022-12-07T11:56:21;94277.09;;;8.33;65.10
67434;BME280;54305;47.950;6.572;2022-12-07T12:06:38;94256.09;;;13.35;52.11
67434;BME280;54305;47.950;6.572;2022-12-07T12:09:20;94255.72;;;14.32;47.76
67434;BME280;54305;47.950;6.572;2022-12-07T12:19:36;94238.59;;;15.47;44.92
67434;BME280;54305;47.950;6.572;2022-12-07T12:22:06;94240.34;;;15.13;47.34
67434;BME280;54305;47.950;6.572;2022-12-07T12:24:35;94230.91;;;15.46;44.53
67434;BME280;54305;47.950;6.572;2022-12-07T12:27:21;94233.72;;;14.47;45.48
67434;BME280;54305;47.950;6.572;2022-12-07T12:29:52;94228.81;;;14.38;47.15
67434;BME280;54305;47.950;6.572;2022-12-07T12:32:19;94226.69;;;15.24;42.61
67434;BME280;54305;47.950;6.572;2022-12-07T12:42:51;94230.97;;;10.44;52.31
67434;BME280;54305;47.950;6.572;2022-12-07T12:47:53;94224.72;;;11.94;51.14
67434;BME280;54305;47.950;6.572;2022-12-07T12:52:58;94206.88;;;14.24;46.30
67434;BME280;54305;47.950;6.572;2022-12-07T12:55:46;94200.56;;;15.37;44.64
67434;BME280;54305;47.950;6.572;2022-12-07T13:00:47;94199.78;;;16.37;40.39
67434;BME280;54305;47.950;6.572;2022-12-07T13:03:26;94204.22;;;14.39;42.89
67434;BME280;54305;47.950;6.572;2022-12-07T13:08:36;94207.84;;;10.73;52.65
67434;BME280;54305;47.950;6.572;2022-12-07T13:11:48;94198.03;;;9.79;55.72
67434;BME280;54305;47.950;6.572;2022-12-07T13:14:34;94202.16;;;8.73;60.76
67434;BME280;54305;47.950;6.572;2022-12-07T13:16:41;94202.41;;;7.84;62.72
67434;BME280;54305;47.950;6.572;2022-12-07T13:19:31;94205.84;;;7.57;66.38
67434;BME280;54305;47.950;6.572;2022-12-07T13:24:58;94218.19;;;6.92;71.49
67434;BME280;54305;47.950;6.572;2022-12-07T13:27:27;94219.28;;;6.89;67.16
67434;BME280;54305;47.950;6.572;2022-12-07T13:29:53;94207.31;;;6.88;69.50
67434;BME280;54305;47.950;6.572;2022-12-07T13:32:30;94208.47;;;6.67;72.29
67434;BME280;54305;47.950;6.572;2022-12-07T13:34:57;94209.94;;;6.33;75.21
67434;BME280;54305;47.950;6.572;2022-12-07T13:37:32;94212.38;;;6.25;74.03
67434;BME280;54305;47.950;6.572;2022-12-07T13:39:58;94211.19;;;6.19;72.65
67434;BME280;54305;47.950;6.572;2022-12-07T13:42:25;94216.50;;;5.99;74.91
67434;BME280;54305;47.950;6.572;2022-12-07T13:44:51;94207.22;;;6.25;73.09
67434;BME280;54305;47.950;6.572;2022-12-07T13:47:18;94204.53;;;6.17;69.02
67434;BME280;54305;47.950;6.572;2022-12-07T13:49:46;94207.53;;;6.03;73.78
67434;BME280;54305;47.950;6.572;2022-12-07T13:52:14;94208.03;;;6.16;72.84
67434;BME280;54305;47.950;6.572;2022-12-07T13:54:45;94195.47;;;6.40;73.53
67434;BME280;54305;47.950;6.572;2022-12-07T13:57:11;94199.88;;;6.11;75.17
67434;BME280;54305;47.950;6.572;2022-12-07T13:59:36;94199.38;;;5.98;75.29
67434;BME280;54305;47.950;6.572;2022-12-07T14:02:16;94202.34;;;6.03;76.06
67434;BME280;54305;47.950;6.572;2022-12-07T14:04:42;94193.63;;;6.04;73.93
67434;BME280;54305;47.950;6.572;2022-12-07T14:07:22;94198.00;;;5.94;75.50
67434;BME280;54305;47.950;6.572;2022-12-07T14:10:01;94194.28;;;5.49;80.10
67434;BME280;54305;47.950;6.572;2022-12-07T14:12:28;94194.69;;;5.35;81.66
67434;BME280;54305;47.950;6.572;2022-12-07T14:14:54;94194.06;;;5.03;76.41
67434;BME280;54305;47.950;6.572;2022-12-07T14:17:21;94190.28;;;5.07;80.35
67434;BME280;54305;47.950;6.572;2022-12-07T14:24:45;94196.41;;;4.76;82.74
67434;BME280;54305;47.950;6.572;2022-12-07T14:27:20;94195.53;;;4.66;84.75
67434;BME280;54305;47.950;6.572;2022-12-07T14:29:46;94190.38;;;4.66;85.15
67434;BME280;54305;47.950;6.572;2022-12-07T14:32:34;94194.19;;;4.62;84.89
67434;BME280;54305;47.950;6.572;2022-12-07T14:37:26;94193.94;;;4.44;86.45
67434;BME280;54305;47.950;6.572;2022-12-07T14:39:52;94183.00;;;4.52;84.20
67434;BME280;54305;47.950;6.572;2022-12-07T14:42:18;94187.22;;;4.53;85.80
67434;BME280;54305;47.950;6.572;2022-12-07T14:44:44;94188.25;;;4.41;85.49
67434;BME280;54305;47.950;6.572;2022-12-07T14:47:09;94185.66;;;4.41;86.49
67434;BME280;54305;47.950;6.572;2022-12-07T14:49:35;94187.47;;;4.20;87.24
67434;BME280;54305;47.950;6.572;2022-12-07T14:52:00;94186.38;;;4.22;87.95
67434;BME280;54305;47.950;6.572;2022-12-07T14:54:36;94179.84;;;4.18;89.09
67434;BME280;54305;47.950;6.572;2022-12-07T14:57:02;94186.91;;;4.16;89.70